Time;durP1;ratioP1;P1;durP2;ratioP2;P2;SDS_P1;SDS_P2;PMS_P1;PMS_P2;Temp;Humidity;BMP_temperature;BMP_pressure;BME280_temperature;BME280_humidity;BME280_pressure;Samples;Min_cycle;Max_cycle;Signal;HPM_P1;HPM_P2
2022/05/02 00:02:20;;;;;;;8.7;7.1;;;;;;;;;;;;;
2022/05/02 00:04:46;;;;;;;9.3;7.4;;;;;;;;;;;;;
2022/05/02 00:07:11;;;;;;;8.5;6.7;;;;;;;;;;;;;
2022/05/02 00:09:38;;;;;;;9.8;7.7;;;;;;;;;;;;;
2022/05/02 00:12:03;;;;;;;9.2;7.8;;;;;;;;;;;;;
2022/05/02 00:14:28;;;;;;;10;7.5;;;;;;;;;;;;;
2022/05/02 00:16:53;;;;;;;9.2;7.8;;;;;;;;;;;;;
2022/05/02 00:19:20;;;;;;;10.1;7.8;;;;;;;;;;;;;
2022/05/02 00:21:45;;;;;;;8.2;6.8;;;;;;;;;;;;;
2022/05/02 00:24:10;;;;;;;8.4;6.9;;;;;;;;;;;;;
2022/05/02 00:26:35;;;;;;;10;7.2;;;;;;;;;;;;;
2022/05/02 00:29:03;;;;;;;8.1;7;;;;;;;;;;;;;
2022/05/02 00:31:28;;;;;;;9.6;7.2;;;;;;;;;;;;;
2022/05/02 00:33:54;;;;;;;8.5;7;;;;;;;;;;;;;
2022/05/02 00:36:19;;;;;;;8.8;7.3;;;;;;;;;;;;;
2022/05/02 00:38:46;;;;;;;8.8;6.5;;;;;;;;;;;;;
2022/05/02 00:41:12;;;;;;;9.3;7.2;;;;;;;;;;;;;
2022/05/02 00:43:38;;;;;;;7.9;6.7;;;;;;;;;;;;;
2022/05/02 00:46:03;;;;;;;7.1;6.3;;;;;;;;;;;;;
2022/05/02 00:48:30;;;;;;;8.2;6.5;;;;;;;;;;;;;
2022/05/02 00:50:55;;;;;;;8.1;6.6;;;;;;;;;;;;;
2022/05/02 00:53:21;;;;;;;8;6.7;;;;;;;;;;;;;
2022/05/02 00:55:46;;;;;;;7.6;6.5;;;;;;;;;;;;;
2022/05/02 00:58:11;;;;;;;9.5;7.7;;;;;;;;;;;;;
2022/05/02 01:00:36;;;;;;;8.5;7.3;;;;;;;;;;;;;
2022/05/02 01:03:04;;;;;;;8.2;6.8;;;;;;;;;;;;;
2022/05/02 01:05:29;;;;;;;8.5;7.2;;;;;;;;;;;;;
2022/05/02 01:07:55;;;;;;;7.8;6.8;;;;;;;;;;;;;
2022/05/02 01:10:20;;;;;;;9.7;7.8;;;;;;;;;;;;;
2022/05/02 01:12:46;;;;;;;10;7.3;;;;;;;;;;;;;
2022/05/02 01:15:11;;;;;;;9.8;7.5;;;;;;;;;;;;;
2022/05/02 01:17:39;;;;;;;9.4;7.4;;;;;;;;;;;;;
2022/05/02 01:20:03;;;;;;;8.8;7.4;;;;;;;;;;;;;
2022/05/02 01:22:29;;;;;;;9.5;7.5;;;;;;;;;;;;;
2022/05/02 01:24:54;;;;;;;9.1;7.5;;;;;;;;;;;;;
2022/05/02 01:27:20;;;;;;;9.1;7.5;;;;;;;;;;;;;
2022/05/02 01:29:45;;;;;;;9.5;8;;;;;;;;;;;;;
2022/05/02 01:32:10;;;;;;;8;6.8;;;;;;;;;;;;;
2022/05/02 01:34:35;;;;;;;7.7;6.4;;;;;;;;;;;;;
2022/05/02 01:37:03;;;;;;;9.5;6.8;;;;;;;;;;;;;
2022/05/02 01:39:28;;;;;;;6.5;5.7;;;;;;;;;;;;;
2022/05/02 01:41:53;;;;;;;6.9;6.2;;;;;;;;;;;;;
2022/05/02 01:44:18;;;;;;;6.8;6;;;;;;;;;;;;;
2022/05/02 01:46:44;;;;;;;8;6;;;;;;;;;;;;;
2022/05/02 01:49:09;;;;;;;7.2;6;;;;;;;;;;;;;
2022/05/02 01:51:36;;;;;;;7.8;6.3;;;;;;;;;;;;;
2022/05/02 01:54:01;;;;;;;7;6.2;;;;;;;;;;;;;
2022/05/02 01:56:26;;;;;;;7.1;6.3;;;;;;;;;;;;;
2022/05/02 01:58:51;;;;;;;7.1;6.1;;;;;;;;;;;;;
2022/05/02 02:01:21;;;;;;;8.1;6.9;;;;;;;;;;;;;
2022/05/02 02:03:46;;;;;;;7.8;6.4;;;;;;;;;;;;;
2022/05/02 02:06:12;;;;;;;7.7;6.1;;;;;;;;;;;;;
2022/05/02 02:08:37;;;;;;;7.8;6.5;;;;;;;;;;;;;
2022/05/02 02:11:02;;;;;;;6.9;6.1;;;;;;;;;;;;;
2022/05/02 02:13:28;;;;;;;9.4;6.8;;;;;;;;;;;;;
2022/05/02 02:15:56;;;;;;;8.3;7;;;;;;;;;;;;;
2022/05/02 02:18:21;;;;;;;8.2;6.7;;;;;;;;;;;;;
2022/05/02 02:20:46;;;;;;;10.3;7.4;;;;;;;;;;;;;
2022/05/02 02:23:11;;;;;;;8.1;7;;;;;;;;;;;;;
2022/05/02 02:25:37;;;;;;;10;6.6;;;;;;;;;;;;;
2022/05/02 02:28:02;;;;;;;8.2;6.8;;;;;;;;;;;;;
2022/05/02 02:30:30;;;;;;;8.8;7.1;;;;;;;;;;;;;
2022/05/02 02:32:55;;;;;;;8.9;6.5;;;;;;;;;;;;;
2022/05/02 02:35:21;;;;;;;7.6;6.1;;;;;;;;;;;;;
2022/05/02 02:37:46;;;;;;;9.5;6.4;;;;;;;;;;;;;
2022/05/02 02:40:14;;;;;;;10.4;7.1;;;;;;;;;;;;;
2022/05/02 02:42:39;;;;;;;7.1;6.4;;;;;;;;;;;;;
2022/05/02 02:45:04;;;;;;;7;6.1;;;;;;;;;;;;;
2022/05/02 02:47:29;;;;;;;6.8;6;;;;;;;;;;;;;
2022/05/02 02:49:55;;;;;;;7.5;6.4;;;;;;;;;;;;;
2022/05/02 02:52:20;;;;;;;7.2;6.1;;;;;;;;;;;;;
2022/05/02 02:54:46;;;;;;;7.7;6.3;;;;;;;;;;;;;
2022/05/02 02:57:12;;;;;;;7.6;6.3;;;;;;;;;;;;;
2022/05/02 02:59:38;;;;;;;8.5;6.8;;;;;;;;;;;;;
2022/05/02 03:02:03;;;;;;;8.3;6.7;;;;;;;;;;;;;
2022/05/02 03:06:54;;;;;;;9.9;7.5;;;;;;;;;;;;;
2022/05/02 03:09:20;;;;;;;8.7;7.1;;;;;;;;;;;;;
2022/05/02 03:11:45;;;;;;;9.2;6.8;;;;;;;;;;;;;
2022/05/02 03:14:10;;;;;;;7.8;6.7;;;;;;;;;;;;;
2022/05/02 03:16:36;;;;;;;8.6;6.9;;;;;;;;;;;;;
2022/05/02 03:19:01;;;;;;;9.1;7.2;;;;;;;;;;;;;
2022/05/02 03:21:27;;;;;;;11;8.1;;;;;;;;;;;;;
2022/05/02 03:24:10;;;;;;;12.1;8.2;;;;;;;;;;;;;
2022/05/02 03:26:17;;;;;;;10.5;8;;;;;;;;;;;;;
2022/05/02 03:28:42;;;;;;;13.9;8.1;;;;;;;;;;;;;
2022/05/02 03:31:08;;;;;;;10.7;8;;;;;;;;;;;;;
2022/05/02 03:33:34;;;;;;;11.4;7.5;;;;;;;;;;;;;
2022/05/02 03:36:00;;;;;;;10.2;7.5;;;;;;;;;;;;;
2022/05/02 03:38:25;;;;;;;9.5;7.5;;;;;;;;;;;;;
2022/05/02 03:40:52;;;;;;;8.6;7.1;;;;;;;;;;;;;
2022/05/02 03:43:17;;;;;;;10.4;7.7;;;;;;;;;;;;;
2022/05/02 03:45:44;;;;;;;11.4;8.1;;;;;;;;;;;;;
2022/05/02 03:48:09;;;;;;;9;7.6;;;;;;;;;;;;;
2022/05/02 03:50:35;;;;;;;8.7;7.2;;;;;;;;;;;;;
2022/05/02 03:53:00;;;;;;;9.3;7.1;;;;;;;;;;;;;
2022/05/02 03:55:28;;;;;;;9.4;7;;;;;;;;;;;;;
2022/05/02 03:57:53;;;;;;;9.7;7.2;;;;;;;;;;;;;
2022/05/02 04:02:34;;;;;;;9.2;7.5;;;;;;;4.64;93.62207;937.5036;;;;
2022/05/02 04:05:06;;;;;;;8.9;6.5;;;;;;;4.55;93.80273;937.5461;;;;
2022/05/02 04:07:31;;;;;;;8.3;6.6;;;;;;;4.45;94.68164;937.5614;;;;
2022/05/02 04:10:01;;;;;;;9.8;7.6;;;;;;;4.57;94.95703;937.5233;;;;
2022/05/02 04:12:27;;;;;;;8.2;6.9;;;;;;;4.71;94.27832;937.5349;;;;
2022/05/02 04:14:52;;;;;;;7.4;6.6;;;;;;;4.87;93.07422;937.58;;;;
2022/05/02 04:17:17;;;;;;;9.6;6.7;;;;;;;4.88;92.69336;937.5424;;;;
2022/05/02 04:19:43;;;;;;;8.5;6.8;;;;;;;5.01;92.62109;937.5577;;;;
2022/05/02 04:22:08;;;;;;;7.9;6.8;;;;;;;5.15;92.14355;937.5023;;;;
2022/05/02 04:24:37;;;;;;;9.1;7.1;;;;;;;5.22;91.16406;937.5464;;;;
2022/05/02 04:27:02;;;;;;;8.6;7.1;;;;;;;5.29;90.83203;937.6038;;;;
2022/05/02 04:29:30;;;;;;;7.4;6.6;;;;;;;5.19;90.49316;937.5058;;;;
2022/05/02 04:31:55;;;;;;;11.1;7.9;;;;;;;5.06;91.44727;937.5977;;;;
2022/05/02 04:34:26;;;;;;;8.8;7.4;;;;;;;5.19;91.4541;937.6015;;;;
2022/05/02 04:36:51;;;;;;;7.5;6.5;;;;;;;5.33;90.90723;937.6355;;;;
2022/05/02 04:39:18;;;;;;;6.8;5.9;;;;;;;5.4;89.96387;937.6724;;;;
2022/05/02 04:41:43;;;;;;;7.2;6.2;;;;;;;5.31;90.62207;937.5948;;;;
2022/05/02 04:44:12;;;;;;;7.4;5.6;;;;;;;5.32;90.71191;937.6731;;;;
2022/05/02 04:46:37;;;;;;;6.7;5.7;;;;;;;5.39;90.43359;937.6262;;;;
2022/05/02 04:49:07;;;;;;;7.2;5.5;;;;;;;5.53;89.90039;937.6651;;;;
2022/05/02 04:51:38;;;;;;;6.1;5.2;;;;;;;5.44;89.24902;937.6564;;;;
2022/05/02 04:54:08;;;;;;;7.1;5.6;;;;;;;5.51;89.69336;937.6605;;;;
2022/05/02 04:56:36;;;;;;;9.4;5.6;;;;;;;5.42;89.42578;937.6511;;;;
2022/05/02 04:59:01;;;;;;;6.2;5.2;;;;;;;5.46;89.79492;937.6252;;;;
2022/05/02 05:01:30;;;;;;;7.7;5.1;;;;;;;5.47;89.83203;937.6493;;;;
2022/05/02 05:04:01;;;;;;;5.7;5.2;;;;;;;5.41;90.13477;937.6617;;;;
2022/05/02 05:06:30;;;;;;;6;5.4;;;;;;;5.45;90.37793;937.6604;;;;
2022/05/02 05:08:55;;;;;;;8.7;6.4;;;;;;;5.5;90.34375;937.6373;;;;
2022/05/02 05:11:24;;;;;;;6.4;5.7;;;;;;;5.49;90.07129;937.559;;;;
2022/05/02 05:16:20;;;;;;;6.2;5.2;;;;;;;5.37;90.47559;937.5925;;;;
2022/05/02 05:16:24;;;;;;;6.7;5.7;;;;;;;5.37;90.9375;937.5641;;;;
2022/05/02 05:18:40;;;;;;;5.9;5.1;;;;;;;5.47;91.07129;937.5221;;;;
2022/05/02 05:21:05;;;;;;;6.7;5;;;;;;;5.53;91.10742;937.5071;;;;
2022/05/02 05:23:31;;;;;;;6.2;5.6;;;;;;;5.79;91.0957;937.4217;;;;
2022/05/02 05:25:57;;;;;;;5.3;4.3;;;;;;;6.45;88.36328;937.4711;;;;
2022/05/02 05:28:22;;;;;;;6.6;4.6;;;;;;;6.8;86.60254;937.4026;;;;
2022/05/02 05:30:47;;;;;;;7.4;4.9;;;;;;;7.61;82.90918;937.3469;;;;
2022/05/02 05:33:16;;;;;;;7.6;4.9;;;;;;;7.77;82.31641;937.3657;;;;
2022/05/02 05:35:41;;;;;;;6.4;4.6;;;;;;;8.3;78.94141;937.3614;;;;
2022/05/02 05:38:06;;;;;;;7.7;4.3;;;;;;;9.04;78.09961;937.3494;;;;
2022/05/02 05:40:34;;;;;;;4;3.5;;;;;;;9.96;73.11328;937.3113;;;;
2022/05/02 05:42:59;;;;;;;8.8;4.3;;;;;;;10.52;70.46777;937.2386;;;;
2022/05/02 05:45:30;;;;;;;6.9;4.3;;;;;;;11.17;68.71973;937.1919;;;;
2022/05/02 05:47:56;;;;;;;9.2;3.1;;;;;;;11.17;68.39941;937.1472;;;;
2022/05/02 05:58:18;;;;;;;3.8;3.4;;;;;;;11.6;66.61426;937.1337;;;;
2022/05/02 06:00:46;;;;;;;7.7;3.7;;;;;;;11.37;66.7168;937.0449;;;;
2022/05/02 06:03:11;;;;;;;6.1;3.5;;;;;;;11.61;67.79395;937.0687;;;;
2022/05/02 06:05:43;;;;;;;6.5;3.2;;;;;;;12.4;64.94727;936.9428;;;;
2022/05/02 06:08:11;;;;;;;3;2.7;;;;;;;13.6;60.00977;937.0432;;;;
2022/05/02 06:10:37;;;;;;;2.7;2.2;;;;;;;14.89;56.77539;936.9952;;;;
2022/05/02 06:13:05;;;;;;;3.8;2.6;;;;;;;14.81;55.75;936.9875;;;;
2022/05/02 06:20:23;;;;;;;2.5;2.3;;;;;;;16.48;49.63184;936.9333;;;;
2022/05/02 06:22:48;;;;;;;3.5;2.2;;;;;;;17.12;49.54199;936.948;;;;
2022/05/02 06:25:18;;;;;;;2.5;2.3;;;;;;;17.55;47.3623;936.9205;;;;
2022/05/02 06:27:49;;;;;;;2.4;2.2;;;;;;;17.75;48.08105;936.9799;;;;
2022/05/02 06:30:14;;;;;;;3;2.4;;;;;;;17.55;48.12793;936.9405;;;;
2022/05/02 06:32:46;;;;;;;4.5;2.3;;;;;;;18.28;46.75488;936.8947;;;;
2022/05/02 06:35:13;;;;;;;2.6;2.2;;;;;;;19.5;44.29785;936.8503;;;;
2022/05/02 06:37:39;;;;;;;2.1;1.9;;;;;;;17.42;48.18359;936.9149;;;;
2022/05/02 06:40:13;;;;;;;3.3;1.9;;;;;;;18.7;44.74121;936.813;;;;
2022/05/02 06:42:40;;;;;;;2.2;2;;;;;;;19.79;44.12793;936.8041;;;;
2022/05/02 06:45:13;;;;;;;1.8;1.7;;;;;;;18.33;45.64551;936.7667;;;;
2022/05/02 06:47:43;;;;;;;2.1;1.7;;;;;;;21.01;40.88281;936.7572;;;;
2022/05/02 06:50:09;;;;;;;3.1;1.7;;;;;;;20.61;40.6709;936.7291;;;;
2022/05/02 06:52:34;;;;;;;2.5;1.8;;;;;;;19.63;41.80371;936.7213;;;;
2022/05/02 06:55:01;;;;;;;3.3;1.7;;;;;;;19.25;42.61816;936.7372;;;;
2022/05/02 06:57:35;;;;;;;1.9;1.5;;;;;;;17.88;47.00391;936.7406;;;;
2022/05/02 07:00:06;;;;;;;3.1;1.9;;;;;;;20.71;41.52148;936.6858;;;;
2022/05/02 07:02:34;;;;;;;2.1;1.9;;;;;;;20.47;40.84375;936.601;;;;
2022/05/02 07:04:58;;;;;;;2.7;1.7;;;;;;;17.74;47.52246;936.6982;;;;
2022/05/02 07:07:28;;;;;;;2.4;1.8;;;;;;;17.62;49.15723;936.6761;;;;
2022/05/02 07:09:53;;;;;;;2.2;1.7;;;;;;;17.64;47.00098;936.6475;;;;
2022/05/02 07:12:21;;;;;;;2.3;2;;;;;;;18;45.83105;936.5665;;;;
2022/05/02 07:14:48;;;;;;;2.9;2.1;;;;;;;17.19;46.99902;936.6136;;;;
2022/05/02 07:17:13;;;;;;;2.9;2.5;;;;;;;17.91;47.08887;936.5796;;;;
2022/05/02 07:19:38;;;;;;;2.1;1.9;;;;;;;20.45;41.63574;936.49;;;;
2022/05/02 07:22:04;;;;;;;1.8;1.7;;;;;;;18.14;43.13867;936.5356;;;;
2022/05/02 07:24:29;;;;;;;2.2;1.7;;;;;;;21.24;40.48242;936.4334;;;;
2022/05/02 07:26:54;;;;;;;2.7;2.1;;;;;;;20.7;38.64453;936.4272;;;;
2022/05/02 07:29:19;;;;;;;3.1;1.7;;;;;;;20.67;38.73535;936.4655;;;;
2022/05/02 07:31:46;;;;;;;3.3;1.7;;;;;;;23.22;36.37402;936.4445;;;;
2022/05/02 07:34:10;;;;;;;3.3;1.8;;;;;;;24.3;33.15137;936.3784;;;;
2022/05/02 07:36:39;;;;;;;1.9;1.7;;;;;;;22.96;35.1084;936.3817;;;;
2022/05/02 07:39:03;;;;;;;2.3;1.8;;;;;;;20.81;37.97656;936.4494;;;;
2022/05/02 07:41:35;;;;;;;1.9;1.8;;;;;;;21.15;37.19922;936.4192;;;;
2022/05/02 07:44:03;;;;;;;3.5;1.8;;;;;;;22.43;36.84863;936.2863;;;;
2022/05/02 07:46:29;;;;;;;2.1;1.9;;;;;;;22.86;34.20703;936.3608;;;;
2022/05/02 07:48:54;;;;;;;2.2;1.8;;;;;;;22.18;37.75488;936.3741;;;;
2022/05/02 07:51:19;;;;;;;2.3;1.9;;;;;;;23.72;33.57813;936.3635;;;;
2022/05/02 07:53:48;;;;;;;2.2;2;;;;;;;24.4;35.3623;936.2701;;;;
2022/05/02 07:56:13;;;;;;;3.3;2;;;;;;;23.51;34.96387;936.2559;;;;
2022/05/02 07:58:42;;;;;;;2.4;1.9;;;;;;;24.18;34.875;936.2587;;;;
2022/05/02 08:01:10;;;;;;;1.6;1.5;;;;;;;24.81;34.25098;936.2356;;;;
2022/05/02 08:03:36;;;;;;;1.8;1.7;;;;;;;26.41;31.28418;936.226;;;;
2022/05/02 08:06:02;;;;;;;1.8;1.7;;;;;;;26.96;29.92383;936.19;;;;
2022/05/02 08:08:32;;;;;;;1.8;1.7;;;;;;;27.39;29.33594;936.1945;;;;
2022/05/02 08:10:57;;;;;;;2.3;1.8;;;;;;;27.33;28.91602;936.1451;;;;
2022/05/02 08:13:26;;;;;;;2.4;2.1;;;;;;;27.85;28.39258;936.0723;;;;
2022/05/02 08:15:58;;;;;;;4;2.4;;;;;;;26.95;29.4375;936.136;;;;
2022/05/02 08:18:23;;;;;;;2.2;2;;;;;;;27.41;27.74805;936.1498;;;;
2022/05/02 08:20:50;;;;;;;1.8;1.7;;;;;;;27.78;28.22168;936.1038;;;;
2022/05/02 08:28:10;;;;;;;1.8;1.7;;;;;;;28.53;26.17578;936.1102;;;;
2022/05/02 08:30:36;;;;;;;2.3;1.8;;;;;;;28.55;28.03223;936.0862;;;;
2022/05/02 08:33:01;;;;;;;2.4;1.8;;;;;;;28.01;26.69141;936.077;;;;
2022/05/02 08:35:27;;;;;;;2.5;1.9;;;;;;;27.31;28.13184;936.0759;;;;
2022/05/02 08:37:54;;;;;;;2;1.8;;;;;;;27.82;27.0957;936.0667;;;;
2022/05/02 08:40:20;;;;;;;1.8;1.7;;;;;;;26.18;30.45117;936.0746;;;;
2022/05/02 08:43:22;;;;;;;1.7;1.6;;;;;;;27.16;28.52734;936.0294;;;;
2022/05/02 08:45:47;;;;;;;2.2;2;;;;;;;25.94;31.25098;936.0033;;;;
2022/05/02 08:48:12;;;;;;;1.6;1.5;;;;;;;26.77;30.21973;935.9406;;;;
2022/05/02 08:50:41;;;;;;;1.7;1.5;;;;;;;26.51;30.26172;935.8953;;;;
2022/05/02 08:53:07;;;;;;;1.9;1.8;;;;;;;26.15;30.1416;935.8973;;;;
2022/05/02 08:55:32;;;;;;;1.6;1.5;;;;;;;25.45;32.32715;935.8918;;;;
2022/05/02 08:57:57;;;;;;;1.6;1.5;;;;;;;25.38;32.16992;935.8748;;;;
2022/05/02 09:00:23;;;;;;;1.8;1.6;;;;;;;24.92;32.04199;935.894;;;;
2022/05/02 09:02:48;;;;;;;1.4;1.3;;;;;;;25.23;30.12695;935.8027;;;;
2022/05/02 09:05:16;;;;;;;1.4;1.3;;;;;;;26.05;30.52539;935.8386;;;;
2022/05/02 09:07:43;;;;;;;1.5;1.4;;;;;;;25.4;31.62695;935.8472;;;;
2022/05/02 09:10:08;;;;;;;1.6;1.3;;;;;;;25.69;31.42285;935.7944;;;;
2022/05/02 09:12:34;;;;;;;2.8;1.6;;;;;;;23.59;34.93359;935.7797;;;;
2022/05/02 09:15:12;;;;;;;1.4;1.3;;;;;;;25.19;31.02148;935.8445;;;;
2022/05/02 09:18:46;;;;;;;1.3;1.2;;;;;;;25.91;28.95605;935.786;;;;
2022/05/02 09:21:11;;;;;;;1.6;1.3;;;;;;;26.56;28.52441;935.7464;;;;
2022/05/02 09:23:37;;;;;;;1.4;1.3;;;;;;;24.84;29.83008;935.7972;;;;
2022/05/02 09:26:03;;;;;;;2.2;1.6;;;;;;;25.7;32.57031;935.7489;;;;
2022/05/02 09:28:31;;;;;;;1.5;1.4;;;;;;;25.08;30.56641;935.6694;;;;
2022/05/02 09:31:03;;;;;;;1.7;1.6;;;;;;;24.54;31.87305;935.6688;;;;
2022/05/02 09:33:28;;;;;;;2.9;1.9;;;;;;;24.31;33.46973;935.7001;;;;
2022/05/02 09:35:58;;;;;;;1.5;1.4;;;;;;;24.24;34.14844;935.6067;;;;
2022/05/02 09:38:26;;;;;;;1.5;1.4;;;;;;;24.02;36.03906;935.6135;;;;
2022/05/02 09:40:51;;;;;;;1.6;1.5;;;;;;;24.15;33.29395;935.6615;;;;
2022/05/02 09:43:17;;;;;;;2.1;1.5;;;;;;;23.32;35.01855;935.6789;;;;
2022/05/02 09:49:37;;;;;;;1.6;1.4;;;;;;;23.71;34.0957;935.582;;;;
2022/05/02 09:50:35;;;;;;;1.5;1.4;;;;;;;24.19;35.31055;935.574;;;;
2022/05/02 09:53:00;;;;;;;1.8;1.5;;;;;;;23.63;36.75977;935.5808;;;;
2022/05/02 09:57:50;;;;;;;3.6;1.7;;;;;;;24.55;33.33496;935.5463;;;;
2022/05/02 10:02:45;;;;;;;1.8;1.7;;;;;;;24.17;35.80371;935.5392;;;;
2022/05/02 10:05:12;;;;;;;3.1;2;;;;;;;24.14;35.74219;935.5269;;;;
2022/05/02 10:07:38;;;;;;;2.6;2;;;;;;;23.82;38.01172;935.5069;;;;
2022/05/02 10:10:03;;;;;;;2.3;2.1;;;;;;;23.94;36.84473;935.4755;;;;
2022/05/02 10:12:28;;;;;;;2.5;2.3;;;;;;;24.22;36.2793;935.43;;;;
2022/05/02 10:14:56;;;;;;;3;2.7;;;;;;;24.23;37.26953;935.4561;;;;
2022/05/02 10:17:24;;;;;;;3.2;2.5;;;;;;;23.16;38.21387;935.4152;;;;
2022/05/02 10:19:51;;;;;;;2.6;2.4;;;;;;;22.66;41.03516;935.4406;;;;
2022/05/02 10:22:20;;;;;;;2.6;2.4;;;;;;;22.85;40.53516;935.3797;;;;
2022/05/02 10:24:45;;;;;;;2.8;2.6;;;;;;;21.77;41.11621;935.3;;;;
2022/05/02 10:27:10;;;;;;;3.2;2.6;;;;;;;21.12;42.71777;935.3885;;;;
2022/05/02 10:29:37;;;;;;;2.6;2.4;;;;;;;20.85;43.68457;935.3664;;;;
2022/05/02 10:32:01;;;;;;;2.9;2.4;;;;;;;20.7;43.51855;935.4164;;;;
2022/05/02 10:34:26;;;;;;;2.6;2.4;;;;;;;20.68;42.61719;935.3652;;;;
2022/05/02 10:36:51;;;;;;;2.7;2.5;;;;;;;19.93;44.85449;935.3512;;;;
2022/05/02 10:39:16;;;;;;;2.9;2.6;;;;;;;19.88;45.04785;935.3285;;;;
2022/05/02 10:41:42;;;;;;;2.5;2.3;;;;;;;19.82;45.08887;935.2543;;;;
2022/05/02 10:44:14;;;;;;;2.8;2.5;;;;;;;19.43;46.83105;935.3307;;;;
2022/05/02 10:46:39;;;;;;;2.5;2.3;;;;;;;19.5;47.49121;935.3052;;;;
2022/05/02 10:49:05;;;;;;;2.5;2.3;;;;;;;19.64;46.48047;935.3533;;;;
2022/05/02 10:51:35;;;;;;;2.4;2.2;;;;;;;19.05;48.37402;935.3466;;;;
2022/05/02 10:54:14;;;;;;;3.1;2.8;;;;;;;19.11;48.37988;935.3483;;;;
2022/05/02 10:56:40;;;;;;;3.9;2.8;;;;;;;19.29;47.81836;935.3136;;;;
2022/05/02 10:59:08;;;;;;;2.7;2.5;;;;;;;19.35;47.5791;935.298;;;;
2022/05/02 11:01:32;;;;;;;2.6;2.3;;;;;;;19.29;48.07422;935.2603;;;;
2022/05/02 11:04:04;;;;;;;3.3;2.5;;;;;;;19.16;48.33887;935.27;;;;
2022/05/02 11:06:29;;;;;;;2.6;2.4;;;;;;;19.12;49.2207;935.2549;;;;
2022/05/02 11:08:55;;;;;;;2.6;2.4;;;;;;;18.88;48.29785;935.2726;;;;
2022/05/02 11:11:20;;;;;;;2.6;2.4;;;;;;;18.93;49.41992;935.2697;;;;
2022/05/02 11:13:45;;;;;;;3.8;2.3;;;;;;;18.79;50.24219;935.2725;;;;
2022/05/02 11:16:12;;;;;;;3.4;2.6;;;;;;;18.49;49.89355;935.2484;;;;
2022/05/02 11:21:04;;;;;;;3.5;2.7;;;;;;;18.19;51.28906;935.228;;;;
2022/05/02 11:23:30;;;;;;;2.8;2.5;;;;;;;18.27;51.11328;935.2166;;;;
2022/05/02 11:25:57;;;;;;;2.5;2.3;;;;;;;18.29;51.0791;935.1758;;;;
2022/05/02 11:28:22;;;;;;;2.9;2.4;;;;;;;18.38;51.95117;935.1573;;;;
2022/05/02 11:30:48;;;;;;;6.4;3;;;;;;;18.51;51.02344;935.1454;;;;
2022/05/02 11:33:14;;;;;;;2.9;2.4;;;;;;;18.66;50.77441;935.1308;;;;
2022/05/02 11:35:41;;;;;;;3.5;2.2;;;;;;;18.92;49.88379;935.1136;;;;
2022/05/02 11:38:05;;;;;;;2.4;2.2;;;;;;;18.86;49.98242;935.0789;;;;
2022/05/02 11:40:36;;;;;;;2.1;1.9;;;;;;;19.04;49.44434;935.0967;;;;
2022/05/02 11:46:26;;;;;;;3.8;1.9;;;;;;;19.14;48.25586;935.0988;;;;
2022/05/02 11:48:51;;;;;;;2.2;2;;;;;;;19.15;48.4668;935.0451;;;;
2022/05/02 11:51:16;;;;;;;1.7;1.6;;;;;;;18.98;49.37988;935.0496;;;;
2022/05/02 11:53:41;;;;;;;2.8;1.9;;;;;;;19.13;47.75391;935.0588;;;;
2022/05/02 11:56:06;;;;;;;1.9;1.8;;;;;;;19.49;47.60547;935.0254;;;;
2022/05/02 11:58:34;;;;;;;2.1;1.9;;;;;;;19.56;47.56738;935.0193;;;;
2022/05/02 12:00:59;;;;;;;1.9;1.8;;;;;;;19.59;48.24805;934.8939;;;;
2022/05/02 12:03:24;;;;;;;2.4;2.2;;;;;;;19.42;51.39746;934.948;;;;
2022/05/02 12:05:55;;;;;;;2.4;2.1;;;;;;;19.89;49.44629;934.9532;;;;
2022/05/02 12:08:19;;;;;;;2.2;1.8;;;;;;;20.49;47.59766;934.9183;;;;
2022/05/02 12:10:47;;;;;;;2.3;2.1;;;;;;;20.51;47.82227;934.9511;;;;
2022/05/02 12:13:14;;;;;;;2.1;1.8;;;;;;;20.29;47.99707;934.9447;;;;
2022/05/02 12:15:47;;;;;;;2.1;1.9;;;;;;;20.65;47.14844;934.9285;;;;
2022/05/02 12:18:13;;;;;;;1.9;1.8;;;;;;;20.76;45.73242;934.9338;;;;
2022/05/02 12:20:45;;;;;;;2;1.8;;;;;;;21.04;45.44629;934.9009;;;;
2022/05/02 12:23:13;;;;;;;3.5;2;;;;;;;21.1;45.8623;934.9487;;;;
2022/05/02 12:25:38;;;;;;;2.1;1.7;;;;;;;21.27;44.46289;934.9595;;;;
2022/05/02 12:28:06;;;;;;;2.6;1.9;;;;;;;20.94;46.85156;934.9598;;;;
2022/05/02 12:30:29;;;;;;;1.9;1.8;;;;;;;21.33;44.69238;934.8981;;;;
2022/05/02 12:33:03;;;;;;;3.7;2;;;;;;;21.36;44.94141;934.8865;;;;
2022/05/02 12:35:28;;;;;;;3.2;2;;;;;;;21.31;45.29785;934.8267;;;;
2022/05/02 12:37:57;;;;;;;2.1;1.8;;;;;;;21.46;44.20215;934.7996;;;;
2022/05/02 12:40:22;;;;;;;2.3;1.7;;;;;;;21.62;44.05371;934.7957;;;;
2022/05/02 12:42:50;;;;;;;2.1;1.9;;;;;;;21.33;46.07324;934.809;;;;
2022/05/02 12:45:18;;;;;;;2.9;1.9;;;;;;;20.64;46.52734;934.8505;;;;
2022/05/02 12:47:50;;;;;;;2.5;1.9;;;;;;;20.65;48.24512;934.8792;;;;
2022/05/02 12:50:17;;;;;;;3;2.1;;;;;;;20.59;47.58496;934.8228;;;;
2022/05/02 12:52:42;;;;;;;1.8;1.7;;;;;;;20.64;45.69727;934.8708;;;;
2022/05/02 12:55:15;;;;;;;2.3;2.1;;;;;;;20.62;47.47168;934.7992;;;;
2022/05/02 13:02:04;;;;;;;2;1.9;;;;;;;20.7;48.0293;934.693;;;;
2022/05/02 13:02:38;;;;;;;2.3;2;;;;;;;20.77;46.62207;934.7319;;;;
2022/05/02 13:05:03;;;;;;;2.4;2.2;;;;;;;20.56;48.14258;934.6476;;;;
2022/05/02 13:07:31;;;;;;;2.4;1.8;;;;;;;20.46;46.90527;934.6494;;;;
2022/05/02 13:09:57;;;;;;;2.2;2;;;;;;;20.68;45.09473;934.6953;;;;
2022/05/02 13:12:24;;;;;;;2.1;1.9;;;;;;;20.81;44.70996;934.6528;;;;
2022/05/02 13:14:50;;;;;;;2.1;1.9;;;;;;;20.14;48.78418;934.6027;;;;
2022/05/02 13:17:15;;;;;;;2;1.7;;;;;;;19.99;49.71387;934.5669;;;;
2022/05/02 13:19:43;;;;;;;3.7;2;;;;;;;19.94;49.39355;934.4949;;;;
2022/05/02 13:22:08;;;;;;;2.1;1.9;;;;;;;20.42;47.62402;934.4816;;;;
2022/05/02 13:24:37;;;;;;;7.7;2.7;;;;;;;20.52;47.15723;934.4766;;;;
2022/05/02 13:27:12;;;;;;;2.3;2.1;;;;;;;19.95;49.82617;934.4792;;;;
2022/05/02 13:29:37;;;;;;;2.3;2.1;;;;;;;19.99;48.66406;934.4595;;;;
2022/05/02 13:32:03;;;;;;;2.3;2.1;;;;;;;19.6;50.59082;934.4375;;;;
2022/05/02 13:34:32;;;;;;;2.7;2.2;;;;;;;19.99;49.77246;934.4391;;;;
2022/05/02 13:36:58;;;;;;;2.2;2;;;;;;;20.3;48.11426;934.418;;;;
2022/05/02 13:39:22;;;;;;;2.4;2;;;;;;;20.67;47.97949;934.4448;;;;
2022/05/02 13:41:49;;;;;;;2.6;2;;;;;;;21.01;46.97461;934.3552;;;;
2022/05/02 13:44:14;;;;;;;2.2;2.1;;;;;;;21.1;48.07324;934.3697;;;;
2022/05/02 13:46:39;;;;;;;2.5;2.3;;;;;;;20.92;47.22363;934.4119;;;;
2022/05/02 13:49:07;;;;;;;2.6;2.2;;;;;;;20.92;48.60254;934.3674;;;;
2022/05/02 13:51:32;;;;;;;2.1;1.9;;;;;;;20.77;46.84473;934.3708;;;;
2022/05/02 13:53:58;;;;;;;3.2;2;;;;;;;20.81;46.66211;934.3678;;;;
2022/05/02 13:56:25;;;;;;;2.4;2.2;;;;;;;20.66;46.31934;934.3772;;;;
2022/05/02 13:58:57;;;;;;;2.7;2.4;;;;;;;20.33;48.39746;934.4091;;;;
2022/05/02 14:01:32;;;;;;;2.5;2.3;;;;;;;20.2;48.4541;934.4089;;;;
2022/05/02 14:03:56;;;;;;;2.6;2.2;;;;;;;20.11;47.60352;934.3522;;;;
2022/05/02 14:06:22;;;;;;;2.2;2;;;;;;;20.12;47.21973;934.3914;;;;
2022/05/02 14:08:44;;;;;;;2.4;2.2;;;;;;;19.71;49.96191;934.3873;;;;
2022/05/02 14:11:11;;;;;;;2.4;2.2;;;;;;;19.73;50.57031;934.4392;;;;
2022/05/02 14:13:34;;;;;;;1.6;1.5;;;;;;;19.74;48.91699;934.4041;;;;
2022/05/02 14:16:06;;;;;;;2.1;1.8;;;;;;;19.75;50.1416;934.4055;;;;
2022/05/02 14:18:33;;;;;;;2.4;2.2;;;;;;;19.4;49.6123;934.4509;;;;
2022/05/02 14:20:59;;;;;;;2.8;1.6;;;;;;;19.51;49.05371;934.3705;;;;
2022/05/02 14:23:25;;;;;;;2.3;1.4;;;;;;;19.67;49.30469;934.4459;;;;
2022/05/02 14:25:49;;;;;;;3.3;1.9;;;;;;;19.66;48.80273;934.4373;;;;
2022/05/02 14:28:17;;;;;;;1.8;1.7;;;;;;;19.78;48.31445;934.3964;;;;
2022/05/02 14:30:42;;;;;;;1.6;1.5;;;;;;;19.76;47.49512;934.3356;;;;
2022/05/02 14:33:12;;;;;;;2.7;1.7;;;;;;;19.55;48.45215;934.3292;;;;
2022/05/02 14:35:42;;;;;;;1.5;1.4;;;;;;;19.55;48.47559;934.3711;;;;
2022/05/02 14:38:11;;;;;;;1.9;1.5;;;;;;;19.48;47.94336;934.3342;;;;
2022/05/02 14:40:37;;;;;;;2;1.5;;;;;;;19.39;47.97949;934.3942;;;;
2022/05/02 14:43:07;;;;;;;2.3;1.3;;;;;;;19.29;47.35254;934.3761;;;;
2022/05/02 14:45:32;;;;;;;1.1;1.1;;;;;;;19.17;47.6416;934.4377;;;;
2022/05/02 14:48:01;;;;;;;2.8;1.3;;;;;;;19.15;48.32617;934.4253;;;;
2022/05/02 14:50:27;;;;;;;2.4;1.4;;;;;;;19.08;48.5166;934.4306;;;;
2022/05/02 14:52:57;;;;;;;1.7;1;;;;;;;19.01;47.54297;934.4565;;;;
2022/05/02 14:55:25;;;;;;;1.3;1.2;;;;;;;18.91;47.25293;934.4238;;;;
2022/05/02 14:57:51;;;;;;;2.2;1.6;;;;;;;18.49;49.23145;934.4604;;;;
2022/05/02 15:00:18;;;;;;;3;1.8;;;;;;;18.08;50.60254;934.4819;;;;
2022/05/02 15:02:41;;;;;;;2.2;2;;;;;;;17.93;51.81641;934.4936;;;;
2022/05/02 15:05:18;;;;;;;2.3;1.8;;;;;;;17.43;53.46191;934.4637;;;;
2022/05/02 15:07:47;;;;;;;1.7;1.6;;;;;;;17.77;52.94629;934.4158;;;;
2022/05/02 15:10:16;;;;;;;2.7;1.4;;;;;;;17.78;50.88184;934.5058;;;;
2022/05/02 15:12:40;;;;;;;2.1;1.7;;;;;;;17.55;52.22363;934.5622;;;;
2022/05/02 15:15:04;;;;;;;2.3;2.1;;;;;;;17.51;52.96191;934.5439;;;;
2022/05/02 15:17:31;;;;;;;2;1.8;;;;;;;17.52;54.21484;934.5316;;;;
2022/05/02 15:19:56;;;;;;;2.2;2;;;;;;;17.55;55.23926;934.5148;;;;
2022/05/02 15:22:26;;;;;;;3.1;2.3;;;;;;;17.43;55.36523;934.5383;;;;
2022/05/02 15:25:04;;;;;;;2.4;2.2;;;;;;;17.39;55.45215;934.5276;;;;
2022/05/02 15:27:16;;;;;;;2.6;2;;;;;;;17.34;55.90918;934.5539;;;;
2022/05/02 15:37:04;;;;;;;2.3;2.1;;;;;;;16.9;58.95898;934.6231;;;;
2022/05/02 15:39:35;;;;;;;4.1;2.3;;;;;;;16.67;59.68164;934.6364;;;;
2022/05/02 15:42:10;;;;;;;3.5;2.2;;;;;;;16.59;59.79785;934.6558;;;;
2022/05/02 15:44:36;;;;;;;2.1;1.9;;;;;;;16.45;60.0791;934.6649;;;;
2022/05/02 15:47:05;;;;;;;2.8;2.5;;;;;;;16.18;60.64355;934.6919;;;;
2022/05/02 15:49:31;;;;;;;3;2.5;;;;;;;16.04;60.86621;934.7811;;;;
2022/05/02 15:52:02;;;;;;;2.1;1.9;;;;;;;16.03;62.05762;934.8061;;;;
2022/05/02 15:54:40;;;;;;;2;1.9;;;;;;;15.9;61.50781;934.8192;;;;
2022/05/02 15:57:05;;;;;;;2.1;1.9;;;;;;;15.85;60.14648;934.8555;;;;
2022/05/02 15:59:31;;;;;;;1.8;1.7;;;;;;;15.85;59.96289;934.8594;;;;
2022/05/02 16:02:01;;;;;;;1.7;1.6;;;;;;;15.79;60.39355;934.8616;;;;
2022/05/02 16:04:31;;;;;;;1.7;1.6;;;;;;;15.79;60.98242;934.9459;;;;
2022/05/02 16:06:59;;;;;;;2.3;1.7;;;;;;;15.71;62.25391;934.9922;;;;
2022/05/02 16:10:57;;;;;;;2.3;1.7;;;;;;;15.51;63.64648;934.9842;;;;
2022/05/02 16:13:23;;;;;;;2;1.8;;;;;;;15.31;67.47168;935.0389;;;;
2022/05/02 16:15:48;;;;;;;1.8;1.7;;;;;;;15.08;68.90137;935.0322;;;;
2022/05/02 16:18:22;;;;;;;3.3;2;;;;;;;14.69;71.61816;935.0299;;;;
2022/05/02 16:20:42;;;;;;;2.2;1.8;;;;;;;14.63;72.16113;935.0259;;;;
2022/05/02 16:23:07;;;;;;;2;1.8;;;;;;;14.6;73.34375;934.9778;;;;
2022/05/02 16:25:36;;;;;;;2.5;1.9;;;;;;;14.42;74.4209;935.0851;;;;